Flight Track Log - Related Links

Times and Time Zones

All times are in EDT time to prevent confusion due to time zone crossing. See the SWA3924 flight status page for this flight to view local times or setup timezone preferences in your user account.

Time Position Orientation Groundspeed Altitude Reporting Facility
EDT Latitude Longitude Course Direction KTS MPH feet Rate Location/Type
Mon 01:16:54 PM 28.4500 -81.3000 339° North 177 204 1,100  Level Orlando TRACON
Mon 01:18:00 PM 28.4167 -81.4317 270° West  Level FlightAware Approximate
Mon 01:19:19 PM 28.5667 -81.3500 270° West 227 261 7,500  Level Orlando TRACON
Mon 01:20:19 PM 28.5667 -81.4167 270° West 257 296 8,000 1,123 Climbing Orlando TRACON
Mon 01:22:26 PM 28.5544 -81.5903 265° West 260 299 11,000 2,599 Climbing Jacksonville Center
Mon 01:24:00 PM 28.6997 -81.6793 332° Northwest  Level Estimated
Mon 01:24:26 PM 28.5039 -81.7753 332° Northwest 301 346 18,700  Level Jacksonville Center
Mon 01:25:00 PM 28.4167 -82.2697 270° West  Level FlightAware Approximate
Mon 01:26:00 PM 28.6505 -81.8614 270° West  Level Estimated
Mon 01:26:26 PM 28.4347 -81.9789 270° West 342 394 22,700  Level Jacksonville Center
Mon 01:28:00 PM 28.4167 -82.1665 270° West  Level FlightAware Approximate
Mon 01:30:26 PM 28.5956 -82.3678 335° Northwest 371 427 31,900  Level Jacksonville Center
Mon 01:31:26 PM 28.7019 -82.4097 341° North 388 447 33,500 1,350 Climbing Jacksonville Center
Mon 01:32:26 PM 28.8150 -82.4519 342° North 394 453 34,600 1,125 Climbing Jacksonville Center
Mon 01:34:00 PM 28.9646 -82.5313 335° Northwest  Level Estimated
Mon 01:35:00 PM 28.9165 -82.6524 335° Northwest  Level FlightAware Approximate
Mon 01:35:26 PM 29.1514 -82.5858 332° Northwest 429 494 38,000  Level Jacksonville Center
Mon 01:36:26 PM 29.2683 -82.6308 341° North 429 494 38,000  Level Jacksonville Center
Mon 01:37:26 PM 29.3792 -82.6733 342° North 429 494 38,000  Level Jacksonville Center
Mon 01:38:26 PM 29.4939 -82.7183 341° North 429 494 38,000  Level Jacksonville Center
Mon 01:39:26 PM 29.5964 -82.7636 339° North 429 494 38,000  Level Jacksonville Center
Mon 01:40:26 PM 29.7111 -82.8089 341° North 429 494 38,000  Level Jacksonville Center
Mon 01:41:00 PM 29.5652 -83.0224 332° Northwest  Level FlightAware Approximate
Mon 01:41:26 PM 29.8281 -82.8542 341° North 429 494 38,000  Level Jacksonville Center
Mon 01:42:26 PM 29.9450 -82.9022 340° North 429 494 38,000  Level Jacksonville Center
Mon 01:44:00 PM 30.0931 -82.9861 334° Northwest  Level Estimated
Mon 01:47:26 PM 30.5272 -83.1314 334° Northwest 429 494 38,000  Level Jacksonville Center
Mon 01:48:26 PM 30.6419 -83.1800 340° North 429 494 38,000  Level Jacksonville Center
Mon 01:49:26 PM 30.7547 -83.2239 342° North 429 494 38,000  Level Jacksonville Center
Mon 01:51:00 PM 30.9098 -83.2834 342° North  Level FlightAware Approximate
Mon 01:51:00 PM 30.7541 -83.3642 334° Northwest  Level Estimated
Mon 01:52:00 PM 30.8484 -83.4186 334° Northwest  Level Estimated
Mon 01:52:26 PM 31.0819 -83.3608 342° North 428 493 38,000  Level Jacksonville Center
Mon 01:53:00 PM 30.9428 -83.4732 334° Northwest  Level Estimated
Mon 01:53:58 PM 31.2692 -83.4389 340° North 446 513 38,000  Level Atlanta Center
Mon 01:55:58 PM 31.4992 -83.5347 340° North 441 507 38,000  Level Atlanta Center
Mon 01:58:00 PM 31.7091 -83.5944 340° North  Level FlightAware Approximate
Mon 01:58:58 PM 31.8378 -83.6697 340° North 441 507 38,000  Level Atlanta Center
Mon 01:59:58 PM 31.9528 -83.7206 339° North 447 514 38,000  Level Atlanta Center
Mon 02:01:58 PM 32.1847 -83.8181 340° North 447 514 38,000  Level Atlanta Center
Mon 02:02:58 PM 32.3017 -83.8694 340° North 447 514 38,000  Level Atlanta Center
Mon 02:03:58 PM 32.4186 -83.9183 341° North 447 514 38,000  Level Atlanta Center
Mon 02:04:58 PM 32.5336 -83.9650 341° North 447 514 38,000  Level Atlanta Center
Mon 02:05:58 PM 32.6503 -84.0167 340° North 447 514 38,000  Level Atlanta Center
Mon 02:06:58 PM 32.7672 -84.0661 340° North 447 514 38,000  Level Atlanta Center
Mon 02:07:58 PM 32.8819 -84.1131 341° North 447 514 38,000  Level Atlanta Center
Mon 02:08:58 PM 32.9947 -84.1653 339° North 447 514 38,000  Level Atlanta Center
Mon 02:10:00 PM 33.0981 -84.2096 340° North  Level FlightAware Approximate
Mon 02:10:58 PM 33.2408 -84.2697 340° North 447 514 38,000  Level Atlanta Center
Mon 02:11:58 PM 33.3597 -84.3197 341° North 447 514 38,000  Level Atlanta Center
Mon 02:12:58 PM 33.4725 -84.3700 340° North 441 507 38,000  Level Atlanta Center
Mon 02:15:00 PM 33.6759 -84.4579 341° North  Level FlightAware Approximate
Mon 02:15:58 PM 33.8017 -84.5189 341° North 430 495 38,000  Level Atlanta Center
Mon 02:16:58 PM 33.9267 -84.5694 341° North 446 513 38,000 -550 Level Atlanta Center
Mon 02:18:00 PM 34.0323 -84.6067 340° North  Level FlightAware Approximate
Mon 02:21:58 PM 34.4967 -84.8958 328° Northwest 447 514 34,700  Level Atlanta Center
Mon 02:22:58 PM 34.5983 -84.9750 327° Northwest 447 514 33,700 -1,000 Descending Atlanta Center
Mon 02:23:58 PM 34.7022 -85.0544 328° Northwest 447 514 32,700 -1,000 Descending Atlanta Center
Mon 02:24:58 PM 34.8078 -85.1342 328° Northwest 447 514 31,700 -1,000 Descending Atlanta Center
Mon 02:25:00 PM 34.6796 -85.0227 328° Northwest  Level FlightAware Approximate
Mon 02:25:58 PM 34.9114 -85.2167 327° Northwest 447 514 30,700  Level Atlanta Center
Mon 02:26:00 PM 34.7685 -85.0910 328° Northwest  Level FlightAware Approximate
Mon 02:26:58 PM 35.0131 -85.2942 328° Northwest 442 509 29,600  Level Atlanta Center
Mon 02:27:00 PM 34.8574 -85.1595 328° Northwest  Level FlightAware Approximate
Mon 02:27:58 PM 35.1122 -85.3717 327° Northwest 432 497 28,600  Level Atlanta Center
Mon 02:28:44 PM 35.1811 -85.4389 321° Northwest 430 495 27,800 -1,678 Descending Memphis Center
Mon 02:30:00 PM 35.2767 -85.5525 316° Northwest  Level FlightAware Approximate
Mon 02:32:44 PM 35.4769 -85.8139 289° West 361 415 20,600  Level Memphis Center
Mon 02:33:44 PM 35.5381 -85.8947 313° West 341 392 18,700 -1,900 Descending Memphis Center
Mon 02:34:44 PM 35.5994 -85.9756 313° West 334 384 16,800 -1,850 Descending Memphis Center
Mon 02:35:44 PM 35.6586 -86.0544 313° West 334 384 15,000 -1,850 Descending Memphis Center
Mon 02:36:44 PM 35.7219 -86.1381 313° West 334 384 13,100 -1,900 Descending Memphis Center
Mon 02:37:00 PM 35.7739 -86.2144 302° West  Level FlightAware Approximate
Mon 02:37:44 PM 35.7786 -86.2144 312° West 324 373 11,200  Level Memphis Center
Mon 02:38:00 PM 35.8112 -86.3352 289° West  Level FlightAware Approximate
Mon 02:38:44 PM 35.8378 -86.2958 312° West 324 373 10,200  Level Memphis Center
Mon 02:39:44 PM 35.8942 -86.3647 315° West 300 345 9,100 -1,250 Descending Memphis Center
Mon 02:40:44 PM 35.9508 -86.4417 312° West 288 331 7,700 -1,350 Descending Memphis Center
Mon 02:41:44 PM 36.0050 -86.5108 314° West 282 325 6,400 -1,100 Descending Memphis Center
Mon 02:42:44 PM 36.0550 -86.5753 314° West 277 319 5,500 -878 Descending Memphis Center
Mon 02:44:28 PM 36.1667 -86.5333 17° North 213 245 4,000 -915 Descending Nashville TRACON
Mon 02:45:28 PM 36.2167 -86.5500 345° North 193 222 3,000 -947 Descending Nashville TRACON
Mon 02:45:44 PM 36.2175 -86.5753 272° West 174 200 2,800 -868 Descending Memphis Center
Mon 02:46:44 PM 36.1983 -86.6303 247° West 135 155 1,900 -900 Descending Memphis Center
Mon 02:49:00 PM 36.1167 -86.6667 219° Southwest  Level FlightAware Approximate
Mon 02:56:00 PM 36.1245 -86.6782 219° Southwest  Level Estimated
Mon 02:57:00 PM 36.1245 -86.6782 219° Southwest  Level Estimated
Mon 02:58:00 PM 36.1245 -86.6782 219° Southwest  Level Estimated
Mon 02:59:00 PM 36.1245 -86.6782 219° Southwest  Level Estimated
Mon 03:00:00 PM 36.1245 -86.6782 219° Southwest  Level Estimated
Mon 03:01:00 PM 36.1245 -86.6782 219° Southwest  Level Estimated
Mon 03:02:00 PM 36.1245 -86.6782 219° Southwest  Level Estimated
Mon 03:03:00 PM 36.1245 -86.6782 219° Southwest  Level Estimated
Mon 03:04:00 PM 36.1245 -86.6782 219° Southwest  Level Estimated

Login

Don't have an account? Register now (free) for customized features, flight alerts, and more!